sensor_id;sensor_type;location;lat;lon;timestamp;pressure;altitude;pressure_sealevel;temperature;humidity
9419;BME280;4748;50.802;7.132;2023-01-31T00:01:11;101926.19;;;6.75;100.00
9419;BME280;4748;50.802;7.132;2023-01-31T00:03:38;101928.03;;;6.75;100.00
9419;BME280;4748;50.802;7.132;2023-01-31T00:06:12;101930.84;;;6.73;100.00
9419;BME280;4748;50.802;7.132;2023-01-31T00:08:39;101926.84;;;6.69;100.00
9419;BME280;4748;50.802;7.132;2023-01-31T00:11:04;101932.69;;;6.73;100.00
9419;BME280;4748;50.802;7.132;2023-01-31T00:13:30;101935.69;;;6.70;100.00
9419;BME280;4748;50.802;7.132;2023-01-31T00:15:56;101945.47;;;6.69;100.00
9419;BME280;4748;50.802;7.132;2023-01-31T00:18:22;101936.50;;;6.70;100.00
9419;BME280;4748;50.802;7.132;2023-01-31T00:20:47;101936.84;;;6.67;100.00
9419;BME280;4748;50.802;7.132;2023-01-31T00:23:13;101949.13;;;6.68;100.00
9419;BME280;4748;50.802;7.132;2023-01-31T00:25:38;101933.69;;;6.72;100.00
9419;BME280;4748;50.802;7.132;2023-01-31T00:28:03;101942.50;;;6.72;100.00
9419;BME280;4748;50.802;7.132;2023-01-31T00:30:29;101943.50;;;6.71;100.00
9419;BME280;4748;50.802;7.132;2023-01-31T00:32:54;101939.34;;;6.69;100.00
9419;BME280;4748;50.802;7.132;2023-01-31T00:35:20;101931.53;;;6.67;100.00
9419;BME280;4748;50.802;7.132;2023-01-31T00:37:45;101935.69;;;6.70;100.00
9419;BME280;4748;50.802;7.132;2023-01-31T00:40:10;101939.34;;;6.69;100.00
9419;BME280;4748;50.802;7.132;2023-01-31T00:42:36;101936.84;;;6.67;100.00
9419;BME280;4748;50.802;7.132;2023-01-31T00:45:01;101935.53;;;6.71;100.00
9419;BME280;4748;50.802;7.132;2023-01-31T00:47:27;101929.53;;;6.69;100.00
9419;BME280;4748;50.802;7.132;2023-01-31T00:49:52;101940.00;;;6.71;100.00
9419;BME280;4748;50.802;7.132;2023-01-31T00:52:17;101925.19;;;6.68;100.00
9419;BME280;4748;50.802;7.132;2023-01-31T00:54:42;101916.91;;;6.71;100.00
9419;BME280;4748;50.802;7.132;2023-01-31T00:57:08;101931.84;;;6.64;100.00
9419;BME280;4748;50.802;7.132;2023-01-31T00:59:33;101929.84;;;6.66;100.00
9419;BME280;4748;50.802;7.132;2023-01-31T01:01:58;101938.34;;;6.70;100.00
9419;BME280;4748;50.802;7.132;2023-01-31T01:04:24;101933.84;;;6.70;100.00
9419;BME280;4748;50.802;7.132;2023-01-31T01:06:49;101927.84;;;6.68;100.00
9419;BME280;4748;50.802;7.132;2023-01-31T01:09:15;101933.84;;;6.70;100.00
9419;BME280;4748;50.802;7.132;2023-01-31T01:11:41;101932.88;;;6.71;100.00
9419;BME280;4748;50.802;7.132;2023-01-31T01:14:06;101931.69;;;6.66;100.00
9419;BME280;4748;50.802;7.132;2023-01-31T01:16:37;101942.16;;;6.67;100.00
9419;BME280;4748;50.802;7.132;2023-01-31T01:19:11;101947.31;;;6.69;100.00
9419;BME280;4748;50.802;7.132;2023-01-31T01:21:36;101949.13;;;6.68;100.00
9419;BME280;4748;50.802;7.132;2023-01-31T01:24:04;101946.97;;;6.64;100.00
9419;BME280;4748;50.802;7.132;2023-01-31T01:26:31;101936.81;;;6.59;100.00
9419;BME280;4748;50.802;7.132;2023-01-31T01:28:58;101931.66;;;6.58;100.00
9419;BME280;4748;50.802;7.132;2023-01-31T01:31:24;101939.94;;;6.47;100.00
9419;BME280;4748;50.802;7.132;2023-01-31T01:33:58;101937.44;;;6.46;100.00
9419;BME280;4748;50.802;7.132;2023-01-31T01:36:24;101934.78;;;6.46;100.00
9419;BME280;4748;50.802;7.132;2023-01-31T01:38:49;101931.28;;;6.45;100.00
9419;BME280;4748;50.802;7.132;2023-01-31T01:41:15;101930.09;;;6.40;100.00
9419;BME280;4748;50.802;7.132;2023-01-31T01:46:12;101934.75;;;6.38;100.00
9419;BME280;4748;50.802;7.132;2023-01-31T01:48:40;101940.09;;;6.38;100.00
9419;BME280;4748;50.802;7.132;2023-01-31T01:51:06;101938.78;;;6.42;100.00
9419;BME280;4748;50.802;7.132;2023-01-31T01:53:34;101936.59;;;6.45;100.00
9419;BME280;4748;50.802;7.132;2023-01-31T01:56:07;101938.28;;;6.46;100.00
9419;BME280;4748;50.802;7.132;2023-01-31T01:58:45;101932.28;;;6.44;100.00
9419;BME280;4748;50.802;7.132;2023-01-31T02:01:12;101927.97;;;6.43;100.00
9419;BME280;4748;50.802;7.132;2023-01-31T02:03:41;101924.63;;;6.41;100.00
9419;BME280;4748;50.802;7.132;2023-01-31T02:06:07;101921.31;;;6.39;100.00
9419;BME280;4748;50.802;7.132;2023-01-31T02:08:35;101925.28;;;6.35;100.00
9419;BME280;4748;50.802;7.132;2023-01-31T02:11:07;101929.44;;;6.38;100.00
9419;BME280;4748;50.802;7.132;2023-01-31T02:13:36;101915.28;;;6.29;100.00
9419;BME280;4748;50.802;7.132;2023-01-31T02:16:02;101922.94;;;6.32;100.00
9419;BME280;4748;50.802;7.132;2023-01-31T02:18:28;101920.13;;;6.34;100.00
9419;BME280;4748;50.802;7.132;2023-01-31T02:29:20;101927.06;;;6.19;100.00
9419;BME280;4748;50.802;7.132;2023-01-31T02:35:00;101926.75;;;6.22;100.00
9419;BME280;4748;50.802;7.132;2023-01-31T02:37:37;101921.09;;;6.25;100.00
9419;BME280;4748;50.802;7.132;2023-01-31T02:43:24;101909.13;;;6.21;100.00
9419;BME280;4748;50.802;7.132;2023-01-31T02:46:10;101905.94;;;6.17;100.00
9419;BME280;4748;50.802;7.132;2023-01-31T02:51:34;101910.53;;;6.07;100.00
9419;BME280;4748;50.802;7.132;2023-01-31T02:54:14;101908.38;;;6.03;100.00
9419;BME280;4748;50.802;7.132;2023-01-31T02:56:43;101912.53;;;6.06;100.00
9419;BME280;4748;50.802;7.132;2023-01-31T02:59:16;101933.31;;;6.02;100.00
9419;BME280;4748;50.802;7.132;2023-01-31T03:01:48;101924.97;;;5.97;100.00
9419;BME280;4748;50.802;7.132;2023-01-31T03:04:19;101934.94;;;5.95;100.00
9419;BME280;4748;50.802;7.132;2023-01-31T03:09:44;101946.63;;;5.85;100.00
9419;BME280;4748;50.802;7.132;2023-01-31T03:12:46;101942.69;;;5.89;100.00
9419;BME280;4748;50.802;7.132;2023-01-31T03:15:26;101933.50;;;5.83;100.00
9419;BME280;4748;50.802;7.132;2023-01-31T03:18:20;101931.34;;;5.79;100.00
9419;BME280;4748;50.802;7.132;2023-01-31T03:21:15;101941.75;;;5.72;100.00
9419;BME280;4748;50.802;7.132;2023-01-31T03:23:44;101943.81;;;5.61;100.00
9419;BME280;4748;50.802;7.132;2023-01-31T03:26:12;101943.25;;;5.50;100.00
9419;BME280;4748;50.802;7.132;2023-01-31T03:28:39;101937.09;;;5.49;100.00
9419;BME280;4748;50.802;7.132;2023-01-31T03:31:12;101942.38;;;5.41;100.00
9419;BME280;4748;50.802;7.132;2023-01-31T03:33:47;101938.84;;;5.41;100.00
9419;BME280;4748;50.802;7.132;2023-01-31T03:44:25;101913.50;;;5.21;100.00
9419;BME280;4748;50.802;7.132;2023-01-31T03:46:58;101918.47;;;5.24;100.00
9419;BME280;4748;50.802;7.132;2023-01-31T03:49:26;101920.22;;;5.33;100.00
9419;BME280;4748;50.802;7.132;2023-01-31T03:51:58;101919.03;;;5.27;100.00
9419;BME280;4748;50.802;7.132;2023-01-31T03:54:29;101925.00;;;5.29;100.00
9419;BME280;4748;50.802;7.132;2023-01-31T03:57:16;101917.34;;;5.26;100.00
9419;BME280;4748;50.802;7.132;2023-01-31T03:59:43;101918.16;;;5.27;100.00
9419;BME280;4748;50.802;7.132;2023-01-31T04:02:11;101928.13;;;5.25;100.00
9419;BME280;4748;50.802;7.132;2023-01-31T04:07:06;101918.78;;;5.21;100.00
9419;BME280;4748;50.802;7.132;2023-01-31T04:09:32;101924.09;;;5.21;100.00
9419;BME280;4748;50.802;7.132;2023-01-31T04:12:01;101915.47;;;5.19;100.00
9419;BME280;4748;50.802;7.132;2023-01-31T04:14:27;101912.13;;;5.17;100.00
9419;BME280;4748;50.802;7.132;2023-01-31T04:16:52;101909.94;;;5.12;100.00
9419;BME280;4748;50.802;7.132;2023-01-31T04:19:18;101907.41;;;5.03;100.00
9419;BME280;4748;50.802;7.132;2023-01-31T04:21:43;101915.28;;;4.95;100.00
9419;BME280;4748;50.802;7.132;2023-01-31T04:24:08;101906.09;;;4.90;100.00
9419;BME280;4748;50.802;7.132;2023-01-31T04:26:35;101900.59;;;4.83;100.00
9419;BME280;4748;50.802;7.132;2023-01-31T04:29:01;101907.19;;;4.79;100.00
9419;BME280;4748;50.802;7.132;2023-01-31T04:31:26;101903.63;;;4.71;100.00
9419;BME280;4748;50.802;7.132;2023-01-31T04:33:52;101896.44;;;4.63;100.00
9419;BME280;4748;50.802;7.132;2023-01-31T04:36:17;101896.78;;;4.68;100.00
9419;BME280;4748;50.802;7.132;2023-01-31T04:38:42;101897.66;;;4.69;100.00
9419;BME280;4748;50.802;7.132;2023-01-31T04:41:08;101905.59;;;4.69;100.00
9419;BME280;4748;50.802;7.132;2023-01-31T04:43:33;101892.75;;;4.64;100.00
9419;BME280;4748;50.802;7.132;2023-01-31T04:45:58;101893.06;;;4.61;100.00
9419;BME280;4748;50.802;7.132;2023-01-31T04:48:24;101881.13;;;4.57;100.00
9419;BME280;4748;50.802;7.132;2023-01-31T04:50:49;101876.66;;;4.58;100.00
9419;BME280;4748;50.802;7.132;2023-01-31T04:53:14;101874.16;;;4.56;100.00
9419;BME280;4748;50.802;7.132;2023-01-31T04:55:40;101878.75;;;4.54;100.00
9419;BME280;4748;50.802;7.132;2023-01-31T04:58:05;101877.56;;;4.49;100.00
9419;BME280;4748;50.802;7.132;2023-01-31T05:00:30;101876.03;;;4.47;100.00
9419;BME280;4748;50.802;7.132;2023-01-31T05:02:56;101873.84;;;4.42;100.00
9419;BME280;4748;50.802;7.132;2023-01-31T05:05:21;101875.66;;;4.42;100.00
9419;BME280;4748;50.802;7.132;2023-01-31T05:07:46;101868.69;;;4.41;100.00
9419;BME280;4748;50.802;7.132;2023-01-31T05:10:12;101867.19;;;4.38;100.00
9419;BME280;4748;50.802;7.132;2023-01-31T05:12:38;101865.66;;;4.36;100.00
9419;BME280;4748;50.802;7.132;2023-01-31T05:15:04;101864.28;;;4.32;100.00
9419;BME280;4748;50.802;7.132;2023-01-31T05:17:32;101873.22;;;4.31;100.00
9419;BME280;4748;50.802;7.132;2023-01-31T05:19:58;101866.09;;;4.31;100.00
9419;BME280;4748;50.802;7.132;2023-01-31T05:22:24;101862.94;;;4.28;100.00
9419;BME280;4748;50.802;7.132;2023-01-31T05:24:50;101859.44;;;4.27;100.00
9419;BME280;4748;50.802;7.132;2023-01-31T05:27:16;101858.47;;;4.28;100.00
9419;BME280;4748;50.802;7.132;2023-01-31T05:29:42;101857.78;;;4.26;100.00
9419;BME280;4748;50.802;7.132;2023-01-31T05:32:07;101858.06;;;4.23;100.00
9419;BME280;4748;50.802;7.132;2023-01-31T05:34:33;101853.63;;;4.24;100.00
9419;BME280;4748;50.802;7.132;2023-01-31T05:36:59;101851.63;;;4.26;100.00
9419;BME280;4748;50.802;7.132;2023-01-31T05:39:25;101864.06;;;4.25;100.00
9419;BME280;4748;50.802;7.132;2023-01-31T05:41:51;101855.25;;;4.25;100.00
9419;BME280;4748;50.802;7.132;2023-01-31T05:44:17;101862.53;;;4.23;100.00
9419;BME280;4748;50.802;7.132;2023-01-31T05:46:43;101861.25;;;4.27;100.00
9419;BME280;4748;50.802;7.132;2023-01-31T05:49:09;101867.94;;;4.31;100.00
9419;BME280;4748;50.802;7.132;2023-01-31T05:51:34;101864.97;;;4.34;100.00
9419;BME280;4748;50.802;7.132;2023-01-31T05:54:00;101868.16;;;4.37;100.00
9419;BME280;4748;50.802;7.132;2023-01-31T05:56:25;101858.47;;;4.46;100.00
9419;BME280;4748;50.802;7.132;2023-01-31T05:58:51;101867.47;;;4.53;100.00
9419;BME280;4748;50.802;7.132;2023-01-31T06:01:20;101862.41;;;4.59;100.00
9419;BME280;4748;50.802;7.132;2023-01-31T06:03:46;101865.28;;;4.65;100.00
9419;BME280;4748;50.802;7.132;2023-01-31T06:06:12;101857.00;;;4.68;100.00
9419;BME280;4748;50.802;7.132;2023-01-31T06:08:37;101861.69;;;4.74;100.00
9419;BME280;4748;50.802;7.132;2023-01-31T06:11:03;101857.25;;;4.75;100.00
9419;BME280;4748;50.802;7.132;2023-01-31T06:13:30;101861.13;;;4.80;100.00
9419;BME280;4748;50.802;7.132;2023-01-31T06:15:55;101862.44;;;4.84;100.00
9419;BME280;4748;50.802;7.132;2023-01-31T06:18:21;101850.88;;;4.85;100.00
9419;BME280;4748;50.802;7.132;2023-01-31T06:20:46;101856.16;;;4.85;100.00
9419;BME280;4748;50.802;7.132;2023-01-31T06:23:11;101856.16;;;4.85;100.00
9419;BME280;4748;50.802;7.132;2023-01-31T06:25:37;101857.16;;;4.84;100.00
9419;BME280;4748;50.802;7.132;2023-01-31T06:28:02;101851.69;;;4.86;100.00
9419;BME280;4748;50.802;7.132;2023-01-31T06:30:28;101856.63;;;4.81;100.00
9419;BME280;4748;50.802;7.132;2023-01-31T06:32:54;101849.66;;;4.80;100.00
9419;BME280;4748;50.802;7.132;2023-01-31T06:35:19;101837.41;;;4.79;100.00
9419;BME280;4748;50.802;7.132;2023-01-31T06:37:44;101839.34;;;4.77;100.00
9419;BME280;4748;50.802;7.132;2023-01-31T06:40:11;101834.91;;;4.77;100.00
9419;BME280;4748;50.802;7.132;2023-01-31T06:42:37;101835.25;;;4.82;100.00
9419;BME280;4748;50.802;7.132;2023-01-31T06:45:02;101831.16;;;4.88;100.00
9419;BME280;4748;50.802;7.132;2023-01-31T06:47:28;101830.03;;;4.90;100.00
9419;BME280;4748;50.802;7.132;2023-01-31T06:49:53;101826.91;;;4.95;100.00
9419;BME280;4748;50.802;7.132;2023-01-31T06:52:18;101829.41;;;4.96;100.00
9419;BME280;4748;50.802;7.132;2023-01-31T06:54:44;101836.06;;;5.00;100.00
9419;BME280;4748;50.802;7.132;2023-01-31T06:57:09;101833.94;;;5.04;100.00
9419;BME280;4748;50.802;7.132;2023-01-31T06:59:34;101838.75;;;5.08;100.00
9419;BME280;4748;50.802;7.132;2023-01-31T07:02:00;101835.13;;;5.09;100.00
9419;BME280;4748;50.802;7.132;2023-01-31T07:04:25;101840.63;;;5.15;100.00
9419;BME280;4748;50.802;7.132;2023-01-31T07:06:50;101842.31;;;5.16;100.00
9419;BME280;4748;50.802;7.132;2023-01-31T07:09:16;101850.97;;;5.18;100.00
9419;BME280;4748;50.802;7.132;2023-01-31T07:11:41;101853.16;;;5.23;100.00
9419;BME280;4748;50.802;7.132;2023-01-31T07:14:07;101852.13;;;5.24;100.00
9419;BME280;4748;50.802;7.132;2023-01-31T07:16:32;101855.16;;;5.29;100.00
9419;BME280;4748;50.802;7.132;2023-01-31T07:18:58;101847.72;;;5.32;100.00
9419;BME280;4748;50.802;7.132;2023-01-31T07:21:23;101849.06;;;5.36;100.00
9419;BME280;4748;50.802;7.132;2023-01-31T07:23:50;101850.44;;;5.40;100.00
9419;BME280;4748;50.802;7.132;2023-01-31T07:26:16;101852.75;;;5.43;100.00
9419;BME280;4748;50.802;7.132;2023-01-31T07:28:41;101860.88;;;5.42;100.00
9419;BME280;4748;50.802;7.132;2023-01-31T07:31:10;101849.78;;;5.46;100.00
9419;BME280;4748;50.802;7.132;2023-01-31T07:33:36;101855.63;;;5.50;100.00
9419;BME280;4748;50.802;7.132;2023-01-31T07:36:02;101841.97;;;5.45;100.00
9419;BME280;4748;50.802;7.132;2023-01-31T07:38:31;101848.34;;;5.52;100.00
9419;BME280;4748;50.802;7.132;2023-01-31T07:40:58;101856.97;;;5.54;100.00
9419;BME280;4748;50.802;7.132;2023-01-31T07:43:24;101860.31;;;5.63;100.00
9419;BME280;4748;50.802;7.132;2023-01-31T07:45:50;101856.38;;;5.67;100.00
9419;BME280;4748;50.802;7.132;2023-01-31T07:48:15;101855.38;;;5.68;100.00
9419;BME280;4748;50.802;7.132;2023-01-31T07:50:40;101859.13;;;5.75;100.00
9419;BME280;4748;50.802;7.132;2023-01-31T07:53:06;101856.78;;;5.80;100.00
9419;BME280;4748;50.802;7.132;2023-01-31T07:55:31;101856.31;;;5.85;100.00
9419;BME280;4748;50.802;7.132;2023-01-31T07:57:56;101836.25;;;5.90;100.00
9419;BME280;4748;50.802;7.132;2023-01-31T08:00:22;101833.41;;;5.92;100.00
9419;BME280;4748;50.802;7.132;2023-01-31T08:03:25;101819.16;;;5.93;100.00
9419;BME280;4748;50.802;7.132;2023-01-31T08:06:07;101816.69;;;5.99;100.00
9419;BME280;4748;50.802;7.132;2023-01-31T08:08:34;101824.50;;;6.01;100.00
9419;BME280;4748;50.802;7.132;2023-01-31T08:10:59;101812.72;;;6.11;100.00
9419;BME280;4748;50.802;7.132;2023-01-31T08:13:25;101806.06;;;6.07;100.00
9419;BME280;4748;50.802;7.132;2023-01-31T08:15:52;101810.94;;;6.19;100.00
9419;BME280;4748;50.802;7.132;2023-01-31T08:18:18;101811.59;;;6.21;100.00
9419;BME280;4748;50.802;7.132;2023-01-31T08:20:43;101809.75;;;6.30;100.00
9419;BME280;4748;50.802;7.132;2023-01-31T08:23:08;101812.94;;;6.41;100.00
9419;BME280;4748;50.802;7.132;2023-01-31T08:25:34;101826.75;;;6.53;100.00
9419;BME280;4748;50.802;7.132;2023-01-31T08:28:00;101828.09;;;6.57;100.00
9419;BME280;4748;50.802;7.132;2023-01-31T08:30:26;101835.25;;;6.56;100.00
9419;BME280;4748;50.802;7.132;2023-01-31T08:32:52;101826.09;;;6.66;100.00
9419;BME280;4748;50.802;7.132;2023-01-31T08:35:17;101834.72;;;6.68;100.00
9419;BME280;4748;50.802;7.132;2023-01-31T08:37:42;101829.94;;;6.72;100.00
9419;BME280;4748;50.802;7.132;2023-01-31T08:40:08;101832.25;;;6.75;100.00
9419;BME280;4748;50.802;7.132;2023-01-31T08:42:34;101826.44;;;6.79;100.00
9419;BME280;4748;50.802;7.132;2023-01-31T08:44:59;101822.59;;;6.82;100.00
9419;BME280;4748;50.802;7.132;2023-01-31T08:47:24;101823.59;;;6.81;100.00
9419;BME280;4748;50.802;7.132;2023-01-31T08:49:49;101823.44;;;6.82;100.00
9419;BME280;4748;50.802;7.132;2023-01-31T08:52:15;101826.09;;;6.90;100.00
9419;BME280;4748;50.802;7.132;2023-01-31T08:54:40;101823.91;;;6.94;100.00
9419;BME280;4748;50.802;7.132;2023-01-31T08:57:05;101814.09;;;7.02;100.00
9419;BME280;4748;50.802;7.132;2023-01-31T08:59:31;101829.09;;;7.11;100.00
9419;BME280;4748;50.802;7.132;2023-01-31T09:01:56;101818.41;;;7.19;100.00
9419;BME280;4748;50.802;7.132;2023-01-31T09:04:22;101822.06;;;7.18;100.00
9419;BME280;4748;50.802;7.132;2023-01-31T09:06:47;101817.72;;;7.25;100.00
9419;BME280;4748;50.802;7.132;2023-01-31T09:09:13;101824.38;;;7.29;100.00
9419;BME280;4748;50.802;7.132;2023-01-31T09:11:39;101830.69;;;7.28;100.00
9419;BME280;4748;50.802;7.132;2023-01-31T09:14:04;101828.38;;;7.25;100.00
9419;BME280;4748;50.802;7.132;2023-01-31T09:16:29;101814.88;;;7.26;100.00
9419;BME280;4748;50.802;7.132;2023-01-31T09:18:55;101813.41;;;7.24;100.00
9419;BME280;4748;50.802;7.132;2023-01-31T09:21:22;101804.22;;;7.26;100.00
9419;BME280;4748;50.802;7.132;2023-01-31T09:23:53;101804.91;;;7.20;100.00
9419;BME280;4748;50.802;7.132;2023-01-31T09:26:19;101802.06;;;7.22;100.00
9419;BME280;4748;50.802;7.132;2023-01-31T09:28:44;101805.09;;;7.19;100.00
9419;BME280;4748;50.802;7.132;2023-01-31T09:31:12;101807.06;;;7.25;100.00
9419;BME280;4748;50.802;7.132;2023-01-31T09:33:38;101805.59;;;7.22;100.00
9419;BME280;4748;50.802;7.132;2023-01-31T09:36:15;101793.63;;;7.18;100.00
9419;BME280;4748;50.802;7.132;2023-01-31T09:38:41;101791.09;;;7.25;100.00
9419;BME280;4748;50.802;7.132;2023-01-31T09:41:49;101777.44;;;7.28;100.00
9419;BME280;4748;50.802;7.132;2023-01-31T09:44:39;101764.44;;;7.33;100.00
9419;BME280;4748;50.802;7.132;2023-01-31T09:47:35;101760.91;;;7.40;100.00
9419;BME280;4748;50.802;7.132;2023-01-31T09:50:06;101770.69;;;7.48;100.00
9419;BME280;4748;50.802;7.132;2023-01-31T09:52:38;101759.91;;;7.41;100.00
9419;BME280;4748;50.802;7.132;2023-01-31T09:55:05;101758.88;;;7.50;100.00
9419;BME280;4748;50.802;7.132;2023-01-31T10:00:31;101764.03;;;7.52;100.00
9419;BME280;4748;50.802;7.132;2023-01-31T10:03:16;101761.34;;;7.60;100.00
9419;BME280;4748;50.802;7.132;2023-01-31T10:05:59;101757.34;;;7.63;100.00
9419;BME280;4748;50.802;7.132;2023-01-31T10:08:40;101766.44;;;7.69;100.00
9419;BME280;4748;50.802;7.132;2023-01-31T10:11:14;101754.25;;;7.74;100.00
9419;BME280;4748;50.802;7.132;2023-01-31T10:13:48;101749.97;;;7.73;100.00
9419;BME280;4748;50.802;7.132;2023-01-31T10:17:10;101736.53;;;7.89;100.00
9419;BME280;4748;50.802;7.132;2023-01-31T10:19:23;101749.78;;;7.97;100.00
9419;BME280;4748;50.802;7.132;2023-01-31T10:22:04;101751.78;;;8.03;100.00
9419;BME280;4748;50.802;7.132;2023-01-31T10:24:42;101746.13;;;7.98;100.00
9419;BME280;4748;50.802;7.132;2023-01-31T10:27:18;101742.56;;;8.06;100.00
9419;BME280;4748;50.802;7.132;2023-01-31T10:29:50;101727.72;;;8.11;100.00
9419;BME280;4748;50.802;7.132;2023-01-31T10:32:32;101734.56;;;8.13;100.00
9419;BME280;4748;50.802;7.132;2023-01-31T10:35:15;101732.72;;;8.14;100.00
9419;BME280;4748;50.802;7.132;2023-01-31T10:37:47;101730.00;;;8.22;100.00
9419;BME280;4748;50.802;7.132;2023-01-31T10:40:21;101736.28;;;8.29;100.00
9419;BME280;4748;50.802;7.132;2023-01-31T10:42:51;101745.47;;;8.26;100.00
9419;BME280;4748;50.802;7.132;2023-01-31T10:45:20;101730.69;;;8.38;100.00
9419;BME280;4748;50.802;7.132;2023-01-31T10:47:54;101730.50;;;8.40;100.00
9419;BME280;4748;50.802;7.132;2023-01-31T10:50:31;101719.16;;;8.46;100.00
9419;BME280;4748;50.802;7.132;2023-01-31T10:58:04;101697.72;;;8.54;100.00
9419;BME280;4748;50.802;7.132;2023-01-31T11:00:32;101695.97;;;8.61;100.00
9419;BME280;4748;50.802;7.132;2023-01-31T11:02:58;101698.38;;;8.56;100.00
9419;BME280;4748;50.802;7.132;2023-01-31T11:05:26;101691.72;;;8.52;100.00
9419;BME280;4748;50.802;7.132;2023-01-31T11:07:55;101680.50;;;8.42;100.00
9419;BME280;4748;50.802;7.132;2023-01-31T11:10:25;101685.81;;;8.42;100.00
9419;BME280;4748;50.802;7.132;2023-01-31T11:13:00;101667.06;;;8.50;100.00
9419;BME280;4748;50.802;7.132;2023-01-31T11:15:28;101663.75;;;8.62;100.00
9419;BME280;4748;50.802;7.132;2023-01-31T11:17:59;101647.38;;;8.65;100.00
9419;BME280;4748;50.802;7.132;2023-01-31T11:20:30;101642.53;;;8.54;100.00
9419;BME280;4748;50.802;7.132;2023-01-31T11:22:58;101640.94;;;8.60;100.00
9419;BME280;4748;50.802;7.132;2023-01-31T11:25:26;101612.25;;;8.62;100.00
9419;BME280;4748;50.802;7.132;2023-01-31T11:27:58;101610.03;;;8.65;100.00
9419;BME280;4748;50.802;7.132;2023-01-31T11:30:34;101605.69;;;8.50;100.00
9419;BME280;4748;50.802;7.132;2023-01-31T11:33:03;101591.63;;;8.56;100.00
9419;BME280;4748;50.802;7.132;2023-01-31T11:35:30;101596.22;;;8.62;100.00
9419;BME280;4748;50.802;7.132;2023-01-31T11:38:18;101585.06;;;8.58;100.00
9419;BME280;4748;50.802;7.132;2023-01-31T11:40:46;101582.97;;;8.68;100.00
9419;BME280;4748;50.802;7.132;2023-01-31T11:45:44;101573.56;;;8.72;100.00
9419;BME280;4748;50.802;7.132;2023-01-31T11:48:21;101570.25;;;8.84;100.00
9419;BME280;4748;50.802;7.132;2023-01-31T11:50:55;101569.28;;;9.06;100.00
9419;BME280;4748;50.802;7.132;2023-01-31T11:55:50;101568.06;;;9.23;100.00
9419;BME280;4748;50.802;7.132;2023-01-31T11:58:20;101556.75;;;9.21;100.00
9419;BME280;4748;50.802;7.132;2023-01-31T12:01:01;101557.44;;;9.29;100.00
9419;BME280;4748;50.802;7.132;2023-01-31T12:03:30;101551.53;;;9.34;100.00
9419;BME280;4748;50.802;7.132;2023-01-31T12:06:00;101546.44;;;9.39;100.00
9419;BME280;4748;50.802;7.132;2023-01-31T12:08:35;101544.72;;;9.31;100.00
9419;BME280;4748;50.802;7.132;2023-01-31T12:11:33;101558.53;;;9.35;100.00
9419;BME280;4748;50.802;7.132;2023-01-31T12:16:31;101540.59;;;9.50;100.00
9419;BME280;4748;50.802;7.132;2023-01-31T12:35:28;101517.44;;;9.36;100.00
9419;BME280;4748;50.802;7.132;2023-01-31T12:38:17;101519.66;;;9.32;100.00
9419;BME280;4748;50.802;7.132;2023-01-31T12:51:41;101538.53;;;9.10;100.00
9419;BME280;4748;50.802;7.132;2023-01-31T12:57:23;101541.56;;;9.07;100.00
9419;BME280;4748;50.802;7.132;2023-01-31T13:00:26;101536.63;;;9.04;100.00
9419;BME280;4748;50.802;7.132;2023-01-31T13:03:22;101534.56;;;9.06;100.00
9419;BME280;4748;50.802;7.132;2023-01-31T13:06:29;101522.97;;;9.14;100.00
9419;BME280;4748;50.802;7.132;2023-01-31T13:09:17;101527.78;;;9.04;100.00
9419;BME280;4748;50.802;7.132;2023-01-31T13:11:52;101532.66;;;9.00;100.00
9419;BME280;4748;50.802;7.132;2023-01-31T13:14:22;101519.59;;;9.05;100.00
9419;BME280;4748;50.802;7.132;2023-01-31T13:16:57;101508.91;;;9.05;100.00
9419;BME280;4748;50.802;7.132;2023-01-31T13:21:59;101505.56;;;9.03;100.00
9419;BME280;4748;50.802;7.132;2023-01-31T13:24:35;101511.09;;;9.02;100.00
9419;BME280;4748;50.802;7.132;2023-01-31T13:27:14;101513.19;;;9.06;100.00
9419;BME280;4748;50.802;7.132;2023-01-31T13:29:55;101513.47;;;9.11;100.00
9419;BME280;4748;50.802;7.132;2023-01-31T13:32:38;101509.41;;;9.15;100.00
9419;BME280;4748;50.802;7.132;2023-01-31T13:37:50;101516.00;;;9.19;100.00
9419;BME280;4748;50.802;7.132;2023-01-31T13:40:24;101516.66;;;9.21;100.00
9419;BME280;4748;50.802;7.132;2023-01-31T13:42:50;101527.06;;;9.16;100.00
9419;BME280;4748;50.802;7.132;2023-01-31T13:45:24;101525.44;;;9.15;100.00
9419;BME280;4748;50.802;7.132;2023-01-31T13:48:04;101527.47;;;9.13;100.00
9419;BME280;4748;50.802;7.132;2023-01-31T13:50:44;101525.44;;;9.15;100.00
9419;BME280;4748;50.802;7.132;2023-01-31T13:53:18;101525.16;;;9.10;100.00
9419;BME280;4748;50.802;7.132;2023-01-31T13:55:47;101520.84;;;9.09;100.00
9419;BME280;4748;50.802;7.132;2023-01-31T13:58:30;101520.72;;;9.17;100.00
9419;BME280;4748;50.802;7.132;2023-01-31T14:01:07;101514.00;;;9.21;100.00
9419;BME280;4748;50.802;7.132;2023-01-31T14:07:13;101509.63;;;9.14;100.00
9419;BME280;4748;50.802;7.132;2023-01-31T14:14:46;101506.72;;;8.94;100.00
9419;BME280;4748;50.802;7.132;2023-01-31T14:22:29;101510.19;;;8.74;100.00
9419;BME280;4748;50.802;7.132;2023-01-31T14:25:09;101504.56;;;8.69;100.00
9419;BME280;4748;50.802;7.132;2023-01-31T14:27:45;101512.38;;;8.70;100.00
9419;BME280;4748;50.802;7.132;2023-01-31T14:38:06;101512.31;;;8.64;100.00
9419;BME280;4748;50.802;7.132;2023-01-31T14:46:01;101504.75;;;8.67;100.00
9419;BME280;4748;50.802;7.132;2023-01-31T14:51:31;101497.28;;;8.77;100.00
9419;BME280;4748;50.802;7.132;2023-01-31T14:54:22;101496.16;;;8.72;100.00
9419;BME280;4748;50.802;7.132;2023-01-31T14:57:33;101497.84;;;8.73;100.00
9419;BME280;4748;50.802;7.132;2023-01-31T15:02:45;101502.50;;;8.71;100.00
9419;BME280;4748;50.802;7.132;2023-01-31T15:05:16;101512.19;;;8.72;100.00
9419;BME280;4748;50.802;7.132;2023-01-31T15:08:02;101508.41;;;8.66;100.00
9419;BME280;4748;50.802;7.132;2023-01-31T15:19:12;101513.03;;;8.72;100.00
9419;BME280;4748;50.802;7.132;2023-01-31T15:21:42;101518.53;;;8.71;100.00
9419;BME280;4748;50.802;7.132;2023-01-31T15:24:40;101512.94;;;8.66;100.00
9419;BME280;4748;50.802;7.132;2023-01-31T15:27:25;101532.25;;;8.68;100.00
9419;BME280;4748;50.802;7.132;2023-01-31T15:33:01;101513.56;;;8.68;100.00
9419;BME280;4748;50.802;7.132;2023-01-31T15:35:34;101512.56;;;8.69;100.00